createdAt,value
2022-09-16T00:01:14.452Z,94428.94
2022-09-16T00:04:22.601Z,94428.56
2022-09-16T00:07:32.644Z,94427.66
2022-09-16T00:10:41.476Z,94424.06
2022-09-16T00:13:49.882Z,94424.63
2022-09-16T00:16:58.336Z,94421.47
2022-09-16T00:20:08.439Z,94418.47
2022-09-16T00:23:19.866Z,94417.72
2022-09-16T00:26:29.848Z,94418.84
2022-09-16T00:29:38.187Z,94415.94
2022-09-16T00:32:46.451Z,94410.53
2022-09-16T00:36:04.927Z,94415.66
2022-09-16T00:39:14.805Z,94408.44
2022-09-16T00:42:23.174Z,94406.13
2022-09-16T00:45:35.751Z,94401.31
2022-09-16T00:48:44.630Z,94399.56
2022-09-16T00:51:57.927Z,94408.91
2022-09-16T00:55:12.988Z,94401.25
2022-09-16T00:58:29.157Z,94386.63
2022-09-16T01:01:39.393Z,94386.91
2022-09-16T01:04:52.874Z,94382.53
2022-09-16T01:08:01.615Z,94385.38
2022-09-16T01:11:11.099Z,94383.84
2022-09-16T01:14:40.870Z,94385.38
2022-09-16T01:18:03.404Z,94386.72
2022-09-16T01:21:38.896Z,94387.50
2022-09-16T01:25:01.125Z,94390.66
2022-09-16T01:28:40.417Z,94394.16
2022-09-16T01:32:01.246Z,94400.50
2022-09-16T01:35:21.863Z,94397.59
2022-09-16T01:38:49.695Z,94396.69
2022-09-16T01:42:16.109Z,94381.00
2022-09-16T01:45:37.380Z,94386.72
2022-09-16T01:48:58.055Z,94383.78
2022-09-16T01:52:20.607Z,94390.28
2022-09-16T01:55:38.061Z,94385.75
2022-09-16T01:58:54.430Z,94381.00
2022-09-16T02:02:10.499Z,94379.59
2022-09-16T02:05:27.808Z,94374.56
2022-09-16T02:08:44.893Z,94382.03
2022-09-16T02:11:59.256Z,94387.53
2022-09-16T02:15:14.540Z,94388.94
2022-09-16T02:18:30.396Z,94395.34
2022-09-16T02:21:45.887Z,94393.22
2022-09-16T02:24:54.678Z,94393.72
2022-09-16T02:28:12.609Z,94395.69
2022-09-16T02:31:27.137Z,94399.06
2022-09-16T02:34:41.859Z,94402.88
2022-09-16T02:37:57.231Z,94403.03
2022-09-16T02:41:06.230Z,94398.34
2022-09-16T02:44:14.949Z,94397.31
2022-09-16T02:47:34.016Z,94398.84
2022-09-16T02:50:49.052Z,94387.56
2022-09-16T02:54:06.950Z,94391.41
2022-09-16T02:57:16.478Z,94386.53
2022-09-16T03:00:25.788Z,94389.78
2022-09-16T03:03:34.247Z,94389.34
2022-09-16T03:06:42.694Z,94389.78
2022-09-16T03:09:53.279Z,94375.38
2022-09-16T03:13:13.485Z,94376.66
2022-09-16T03:16:33.796Z,94375.13
2022-09-16T03:19:56.872Z,94369.34
2022-09-16T03:23:20.030Z,94369.72
2022-09-16T03:26:39.739Z,94370.16
2022-09-16T03:29:57.098Z,94369.13
2022-09-16T03:33:14.485Z,94360.63
2022-09-16T03:36:33.528Z,94364.66
2022-09-16T03:39:43.192Z,94361.41
2022-09-16T03:42:52.796Z,94359.56
2022-09-16T03:46:00.985Z,94355.91
2022-09-16T03:49:09.249Z,94353.72
2022-09-16T03:52:20.753Z,94358.47
2022-09-16T03:55:29.625Z,94351.22
2022-09-16T03:58:39.207Z,94363.06
2022-09-16T04:01:47.923Z,94355.16
2022-09-16T04:04:56.887Z,94346.78
2022-09-16T04:08:06.952Z,94360.31
2022-09-16T04:11:15.823Z,94355.09
2022-09-16T04:14:25.502Z,94351.72
2022-09-16T04:17:34.643Z,94356.06
2022-09-16T04:20:44.275Z,94355.88
2022-09-16T04:23:54.628Z,94355.41
2022-09-16T04:27:02.961Z,94350.91
2022-09-16T04:30:14.760Z,94359.41
2022-09-16T04:33:23.320Z,94363.28
2022-09-16T04:36:32.059Z,94369.88
2022-09-16T04:39:40.212Z,94368.22
2022-09-16T04:42:51.262Z,94377.78
2022-09-16T04:46:01.250Z,94381.03
2022-09-16T04:49:09.456Z,94379.03
2022-09-16T04:52:17.775Z,94373.13
2022-09-16T04:55:26.072Z,94377.34
2022-09-16T04:58:34.667Z,94373.06
2022-09-16T05:01:45.852Z,94384.50
2022-09-16T05:04:54.729Z,94386.91
2022-09-16T05:08:03.544Z,94387.97
2022-09-16T05:11:13.966Z,94391.34
2022-09-16T05:14:22.277Z,94387.06
2022-09-16T05:17:50.455Z,94384.97
2022-09-16T05:21:01.101Z,94389.25
2022-09-16T05:24:12.849Z,94390.44
2022-09-16T05:27:22.240Z,94385.25
2022-09-16T05:30:30.528Z,94387.09
2022-09-16T05:33:41.228Z,94387.69
2022-09-16T05:36:53.949Z,94389.69
2022-09-16T05:40:02.529Z,94390.50
2022-09-16T05:43:10.755Z,94392.84
2022-09-16T05:46:22.244Z,94381.88
2022-09-16T05:49:32.281Z,94391.59
2022-09-16T05:52:40.576Z,94383.06
2022-09-16T05:55:58.376Z,94379.81
2022-09-16T05:59:07.038Z,94370.63
2022-09-16T06:02:15.399Z,94373.31
2022-09-16T06:05:25.108Z,94375.88
2022-09-16T06:08:35.767Z,94371.38
2022-09-16T06:11:47.425Z,94375.56
2022-09-16T06:14:55.750Z,94376.72
2022-09-16T06:18:06.438Z,94383.03
2022-09-16T06:21:16.806Z,94379.66
2022-09-16T06:24:25.491Z,94378.94
2022-09-16T06:27:34.031Z,94373.91
2022-09-16T06:30:43.136Z,94367.16
2022-09-16T06:33:52.804Z,94366.56
2022-09-16T06:37:03.650Z,94365.72
2022-09-16T06:40:12.474Z,94371.53
2022-09-16T06:43:20.734Z,94375.91
2022-09-16T06:46:30.191Z,94366.56
2022-09-16T06:49:38.536Z,94365.28
2022-09-16T06:52:51.880Z,94363.81
2022-09-16T06:56:03.199Z,94369.25
2022-09-16T06:59:14.293Z,94368.81
2022-09-16T07:02:22.558Z,94365.44
2022-09-16T07:05:30.924Z,94369.16
2022-09-16T07:08:42.168Z,94366.47
2022-09-16T07:11:50.840Z,94377.66
2022-09-16T07:14:59.228Z,94372.50
2022-09-16T07:18:08.824Z,94375.56
2022-09-16T07:21:20.187Z,94374.59
2022-09-16T07:24:29.939Z,94364.91
2022-09-16T07:27:38.153Z,94364.47
2022-09-16T07:30:46.639Z,94370.84
2022-09-16T07:34:02.821Z,94375.34
2022-09-16T07:37:12.774Z,94380.25
2022-09-16T07:40:24.555Z,94386.84
2022-09-16T07:43:35.470Z,94389.53
2022-09-16T07:46:44.619Z,94380.25
2022-09-16T07:49:55.961Z,94389.53
2022-09-16T07:53:04.582Z,94388.56
2022-09-16T07:56:17.262Z,94375.25
2022-09-16T07:59:25.430Z,94376.88
2022-09-16T08:02:33.721Z,94370.03
2022-09-16T08:05:42.174Z,94366.97
2022-09-16T08:08:53.639Z,94365.56
2022-09-16T08:12:06.448Z,94357.28
2022-09-16T08:15:14.884Z,94358.81
2022-09-16T08:18:23.569Z,94369.47
2022-09-16T08:21:32.845Z,94368.63
2022-09-16T08:24:41.308Z,94372.22
2022-09-16T08:27:54.140Z,94366.59
2022-09-16T08:31:04.879Z,94368.19
2022-09-16T08:34:13.202Z,94364.69
2022-09-16T08:37:21.916Z,94364.28
2022-09-16T08:40:37.212Z,94366.88
2022-09-16T08:43:56.852Z,94369.22
2022-09-16T08:47:16.848Z,94368.44
2022-09-16T08:50:32.859Z,94374.19
2022-09-16T08:53:47.657Z,94372.25
2022-09-16T08:57:01.888Z,94367.09
2022-09-16T09:00:17.876Z,94365.28
2022-09-16T09:03:38.223Z,94373.25
2022-09-16T09:07:02.999Z,94362.75
2022-09-16T09:10:24.511Z,94351.91
2022-09-16T09:14:07.029Z,94351.72
2022-09-16T09:17:48.676Z,94349.38
2022-09-16T09:21:20.656Z,94347.47
2022-09-16T09:24:48.405Z,94352.88
2022-09-16T09:30:53.649Z,94347.69
2022-09-16T09:34:18.378Z,94345.28
2022-09-16T09:37:51.692Z,94347.59
2022-09-16T09:41:09.385Z,94343.84
2022-09-16T09:44:42.343Z,94345.53
2022-09-16T09:48:02.040Z,94334.19
2022-09-16T09:51:24.317Z,94343.63
2022-09-16T09:54:36.260Z,94331.63
2022-09-16T09:58:02.688Z,94337.53
2022-09-16T10:01:12.699Z,94343.13
2022-09-16T10:04:22.443Z,94338.97
2022-09-16T10:07:31.103Z,94343.69
2022-09-16T10:10:52.786Z,94335.97
2022-09-16T10:14:05.728Z,94336.38
2022-09-16T10:17:18.949Z,94326.91
2022-09-16T10:20:35.714Z,94322.66
2022-09-16T10:23:57.282Z,94320.69
2022-09-16T10:27:22.592Z,94318.97
2022-09-16T10:30:34.226Z,94310.06
2022-09-16T10:33:46.247Z,94305.28
2022-09-16T10:37:17.729Z,94307.84
2022-09-16T10:40:27.666Z,94299.28
2022-09-16T10:43:39.658Z,94299.69
2022-09-16T10:46:55.739Z,94301.41
2022-09-16T10:50:07.308Z,94301.34
2022-09-16T10:53:30.986Z,94293.72
2022-09-16T10:56:51.309Z,94292.56
2022-09-16T11:00:04.750Z,94287.72
2022-09-16T11:04:16.264Z,94294.06
2022-09-16T11:07:43.003Z,94294.09
2022-09-16T11:11:02.204Z,94287.72
2022-09-16T11:14:22.518Z,94281.16
2022-09-16T11:17:53.121Z,94275.75
2022-09-16T11:21:29.446Z,94268.41
2022-09-16T11:25:21.192Z,94274.00
2022-09-16T11:29:10.333Z,94263.06
2022-09-16T11:32:30.894Z,94256.75
2022-09-16T11:36:11.457Z,94257.25
2022-09-16T11:39:42.334Z,94245.56
2022-09-16T11:43:02.307Z,94243.25
2022-09-16T11:46:21.287Z,94242.63
2022-09-16T11:49:56.928Z,94246.13
2022-09-16T11:53:46.126Z,94238.84
2022-09-16T11:57:01.832Z,94244.56
2022-09-16T12:00:19.168Z,94255.34
2022-09-16T12:03:39.723Z,94263.22
2022-09-16T12:07:07.460Z,94277.28
2022-09-16T12:10:23.272Z,94298.22
2022-09-16T12:13:41.822Z,94324.78
2022-09-16T12:16:58.918Z,94337.03
2022-09-16T12:20:20.690Z,94307.94
2022-09-16T12:23:36.017Z,94311.69
2022-09-16T12:26:53.577Z,94327.63
2022-09-16T12:30:09.037Z,94329.50
2022-09-16T12:33:24.423Z,94338.13
2022-09-16T12:36:41.090Z,94348.38
2022-09-16T12:39:51.884Z,94363.88
2022-09-16T12:43:42.419Z,94345.28
2022-09-16T12:47:13.233Z,94359.47
2022-09-16T12:50:54.621Z,94362.53
2022-09-16T12:55:07.088Z,94373.00
2022-09-16T12:58:58.401Z,94399.94
2022-09-16T13:02:18.595Z,94391.97
2022-09-16T13:05:33.575Z,94375.09
2022-09-16T13:08:42.901Z,94385.34
2022-09-16T13:12:36.728Z,94400.03
2022-09-16T13:15:34.656Z,94396.88
2022-09-16T13:18:48.025Z,94401.03
2022-09-16T13:22:03.756Z,94404.06
2022-09-16T13:25:25.637Z,94390.41
2022-09-16T13:28:45.775Z,94395.13
2022-09-16T13:35:24.374Z,94377.75
2022-09-16T13:38:42.587Z,94372.75
2022-09-16T13:41:53.086Z,94377.53
2022-09-16T13:45:05.453Z,94387.16
2022-09-16T13:48:19.497Z,94400.53
2022-09-16T13:51:35.906Z,94402.72
2022-09-16T13:55:10.026Z,94398.38
2022-09-16T13:58:30.912Z,94410.06
2022-09-16T14:01:59.918Z,94417.31
2022-09-16T14:05:36.878Z,94423.66
2022-09-16T14:08:59.321Z,94432.19
2022-09-16T14:12:19.881Z,94441.09
2022-09-16T14:15:31.128Z,94443.50
2022-09-16T14:18:50.453Z,94454.38
2022-09-16T14:22:04.844Z,94447.72
2022-09-16T14:25:32.452Z,94473.53
2022-09-16T14:28:42.164Z,94483.28
2022-09-16T14:31:53.461Z,94474.78
2022-09-16T14:35:11.935Z,94472.13
2022-09-16T14:38:44.274Z,94463.09
2022-09-16T14:41:56.995Z,94464.19
2022-09-16T14:45:08.323Z,94464.72
2022-09-16T14:48:20.308Z,94454.88
2022-09-16T14:51:30.105Z,94451.41
2022-09-16T14:54:45.725Z,94443.88
2022-09-16T14:57:54.359Z,94437.66
2022-09-16T15:01:12.096Z,94438.63
2022-09-16T15:04:28.587Z,94443.44
2022-09-16T15:08:02.575Z,94449.03
2022-09-16T15:11:36.213Z,94457.16
2022-09-16T15:14:45.649Z,94449.94
2022-09-16T15:17:58.494Z,94456.47
2022-09-16T15:21:12.268Z,94462.63
2022-09-16T15:24:28.904Z,94465.91
2022-09-16T15:27:37.389Z,94457.53
2022-09-16T15:30:49.775Z,94452.13
2022-09-16T15:34:00.420Z,94450.56
2022-09-16T15:37:32.164Z,94445.91
2022-09-16T15:40:43.145Z,94448.53
2022-09-16T15:43:51.613Z,94441.56
2022-09-16T15:47:00.211Z,94447.72
2022-09-16T15:50:16.307Z,94455.22
2022-09-16T15:53:42.818Z,94449.81
2022-09-16T15:57:02.740Z,94453.22
2022-09-16T16:00:16.243Z,94454.34
2022-09-16T16:03:25.234Z,94450.63
2022-09-16T16:06:51.793Z,94452.06
2022-09-16T16:10:17.027Z,94446.84
2022-09-16T16:13:37.401Z,94451.59
2022-09-16T16:17:11.135Z,94450.19
2022-09-16T16:20:20.715Z,94447.44
2022-09-16T16:23:29.653Z,94441.38
2022-09-16T16:26:38.408Z,94435.84
2022-09-16T16:29:48.705Z,94441.28
2022-09-16T16:32:57.528Z,94445.84
2022-09-16T16:36:06.971Z,94448.00
2022-09-16T16:39:15.496Z,94441.78
2022-09-16T16:42:25.472Z,94442.47
2022-09-16T16:45:36.009Z,94449.00
2022-09-16T16:48:45.362Z,94444.38
2022-09-16T16:51:57.765Z,94446.50
2022-09-16T16:55:07.298Z,94448.91
2022-09-16T16:58:15.822Z,94442.09
2022-09-16T17:01:26.761Z,94439.25
2022-09-16T17:04:35.353Z,94446.69
2022-09-16T17:07:44.127Z,94450.13
2022-09-16T17:11:08.062Z,94443.97
2022-09-16T17:14:17.057Z,94444.97
2022-09-16T17:17:31.351Z,94432.34
2022-09-16T17:20:40.249Z,94425.28
2022-09-16T17:23:48.496Z,94431.03
2022-09-16T17:26:57.346Z,94437.41
2022-09-16T17:30:07.868Z,94441.47
2022-09-16T17:33:17.592Z,94434.38
2022-09-16T17:36:26.765Z,94435.66
2022-09-16T17:39:35.093Z,94443.78
2022-09-16T17:42:43.270Z,94440.22
2022-09-16T17:45:53.351Z,94438.13
2022-09-16T17:49:06.405Z,94431.34
2022-09-16T17:52:15.002Z,94433.91
2022-09-16T17:55:23.403Z,94437.31
2022-09-16T17:58:32.524Z,94440.56
2022-09-16T18:01:41.267Z,94439.16
2022-09-16T18:04:51.396Z,94434.81
2022-09-16T18:08:00.498Z,94433.50
2022-09-16T18:11:13.392Z,94427.66
2022-09-16T18:14:23.589Z,94428.03
2022-09-16T18:17:32.199Z,94436.66
2022-09-16T18:20:42.530Z,94426.00
2022-09-16T18:23:56.329Z,94433.13
2022-09-16T18:27:05.353Z,94440.75
2022-09-16T18:30:17.564Z,94442.91
2022-09-16T18:33:25.733Z,94439.50
2022-09-16T18:36:36.937Z,94441.91
2022-09-16T18:39:47.216Z,94445.22
2022-09-16T18:42:56.679Z,94447.47
2022-09-16T18:46:12.531Z,94453.66
2022-09-16T18:49:24.197Z,94464.63
2022-09-16T18:52:34.160Z,94456.84
2022-09-16T18:55:42.784Z,94461.03
2022-09-16T18:59:17.281Z,94464.06
2022-09-16T19:02:21.408Z,94465.59
2022-09-16T19:05:29.697Z,94461.50
2022-09-16T19:08:40.914Z,94459.97
2022-09-16T19:11:50.547Z,94456.19
2022-09-16T19:14:58.964Z,94466.38
2022-09-16T19:18:07.294Z,94471.34
2022-09-16T19:21:19.296Z,94468.13
2022-09-16T19:24:30.957Z,94465.13
2022-09-16T19:27:40.750Z,94466.38
2022-09-16T19:30:49.641Z,94467.00
2022-09-16T19:33:59.342Z,94474.38
2022-09-16T19:37:07.842Z,94455.94
2022-09-16T19:40:19.404Z,94462.03
2022-09-16T19:43:28.264Z,94456.56
2022-09-16T19:46:39.277Z,94469.53
2022-09-16T19:49:48.366Z,94460.94
2022-09-16T19:53:00.296Z,94460.47
2022-09-16T19:56:17.111Z,94464.28
2022-09-16T19:59:25.562Z,94464.94
2022-09-16T20:02:35.605Z,94468.84
2022-09-16T20:05:44.012Z,94464.94
2022-09-16T20:08:56.983Z,94456.69
2022-09-16T20:12:07.625Z,94464.06
2022-09-16T20:15:16.866Z,94461.22
2022-09-16T20:18:25.711Z,94453.06
2022-09-16T20:21:36.365Z,94460.41
2022-09-16T20:24:45.317Z,94467.97
2022-09-16T20:27:56.269Z,94473.03
2022-09-16T20:31:05.794Z,94469.38
2022-09-16T20:34:16.271Z,94473.06
2022-09-16T20:37:27.898Z,94475.75
2022-09-16T20:40:37.128Z,94465.53
2022-09-16T20:43:49.889Z,94472.66
2022-09-16T20:46:58.665Z,94472.09
2022-09-16T20:50:09.287Z,94475.56
2022-09-16T20:53:17.886Z,94472.97
2022-09-16T20:56:35.262Z,94478.72
2022-09-16T20:59:47.721Z,94476.06
2022-09-16T21:02:57.427Z,94473.75
2022-09-16T21:06:09.813Z,94475.47
2022-09-16T21:09:19.670Z,94478.31
2022-09-16T21:12:30.304Z,94472.44
2022-09-16T21:15:40.523Z,94476.72
2022-09-16T21:18:55.034Z,94482.44
2022-09-16T21:22:03.776Z,94483.63
2022-09-16T21:25:12.434Z,94482.44
2022-09-16T21:28:20.662Z,94469.13
2022-09-16T21:31:34.643Z,94478.75
2022-09-16T21:34:43.324Z,94476.69
2022-09-16T21:37:52.061Z,94470.16
2022-09-16T21:41:03.733Z,94471.78
2022-09-16T21:44:12.957Z,94482.00
2022-09-16T21:47:22.936Z,94482.81
2022-09-16T21:50:32.180Z,94482.44
2022-09-16T21:53:42.888Z,94479.16
2022-09-16T21:56:52.804Z,94475.44
2022-09-16T22:00:01.023Z,94476.09
2022-09-16T22:03:19.094Z,94481.53
2022-09-16T22:06:28.184Z,94477.06
2022-09-16T22:09:36.687Z,94482.81
2022-09-16T22:12:45.152Z,94481.59
2022-09-16T22:15:53.769Z,94488.34
2022-09-16T22:19:06.910Z,94490.63
2022-09-16T22:22:15.212Z,94492.69
2022-09-16T22:25:24.258Z,94484.53
2022-09-16T22:28:35.209Z,94482.06
2022-09-16T22:31:43.742Z,94481.28
2022-09-16T22:34:53.648Z,94482.72
2022-09-16T22:38:01.776Z,94484.59
2022-09-16T22:41:11.081Z,94482.19
2022-09-16T22:44:19.440Z,94481.38
2022-09-16T22:47:27.873Z,94480.19
2022-09-16T22:50:37.661Z,94478.94
2022-09-16T22:53:46.931Z,94477.28
2022-09-16T22:56:55.225Z,94484.66
2022-09-16T23:00:04.305Z,94476.88
2022-09-16T23:03:12.763Z,94480.53
2022-09-16T23:06:23.728Z,94479.03
2022-09-16T23:09:31.960Z,94474.41
2022-09-16T23:12:40.898Z,94468.59
2022-09-16T23:15:53.612Z,94473.13
2022-09-16T23:19:05.744Z,94474.28
2022-09-16T23:22:15.492Z,94471.72
2022-09-16T23:25:24.261Z,94468.34
2022-09-16T23:28:32.776Z,94472.22
2022-09-16T23:31:45.010Z,94463.03
2022-09-16T23:34:53.406Z,94461.59
2022-09-16T23:38:03.054Z,94454.25
2022-09-16T23:41:15.132Z,94465.06
2022-09-16T23:44:25.606Z,94466.34
2022-09-16T23:47:33.683Z,94464.53
2022-09-16T23:50:42.105Z,94459.84
2022-09-16T23:53:55.339Z,94457.59
2022-09-16T23:57:03.744Z,94472.09
